CLASSIFICA

CORRIFREGENE

(10/02/2019)

DIVISIONI:
COMPETITIVA     CLASSIFICA:   ASSOLUTA    M     F    
CATEGORIE:   TUTTE    |   SF   |   SF35   |   SF40   |   SF45   |   SF50   |   SF55   |   SF60   |   SF65   |   SM   |   SM35   |   SM40   |   SM45   |   SM50   |   SM55   |   SM60   |   SM65   |   SM70   |   SM75  
ALTRO: Classifica Squadre 
FILTRO:
  Atleta      Team        Pulisci       Atleti classificati COMPETITIVA: 946  

Cliccare sulle colonne per cambiare ordinamento Pagina:   | 1 | | 2 | | 3 | | 4 | | 5 | | 6 | | 7 | | 8 | | 9 | | 10 | | 11 | | 12 | | 13 | | 14 | | 15 | | 16 | | 17 | | 18 | | 19 |
Azioni Pos. M/F Cat. P.Cat. Pett Naz Atleta Squadra Tempo Distacco in tempo Distacco in metri Min/Km RealTime
11SM45010LUPINETTI FABIOASD ATL.CITTA' DEI PAPI ANAGNI01:14:16 00:00:00 0 00:03:31 01:14:16
22SM4502337CHIOMINTO FABRIZIOA.S.D. ROMATLETICA FOOTWORKS01:15:12 00:00:56 261 00:03:34 01:15:12
33SM3501507CONFORTI GIULIOA.S.D. PIANO MA ARRIVIAMO01:15:14 00:00:58 270 00:03:34 01:15:14
44SM5018BOUDOUMA YAHYASABINA MARATHON CLUB01:15:24 00:01:08 316 00:03:35 01:15:24
55SM4011982CASALINI VITTORIOTIRRENO ATLETICA CIVITAVECCHIA01:15:38 00:01:22 381 00:03:35 01:15:38
66SM3511591BOSCO FRANCESCO MARIANOA.S.D. ATLETICA VILLA GUGLIELMI01:19:13 00:04:57 1.317 00:03:45 01:19:12
77SM4023CAPOCCIA SIMONEMENTANA RUN CLUB01:19:55 00:05:39 1.490 00:03:47 01:19:55
88SM6011777FARAONI CLAUDIOATL.. DI MARCO SPORT01:20:07 00:05:51 1.539 00:03:48 01:20:07
99SM3521362GAFFI MIRCOASD RUNNER TRAINER01:20:13 00:05:57 1.564 00:03:48 01:20:13
1010SM4512091BRANCA SALVATOREA.S.D. PFIZER ITALIA RUNNING TEAM01:20:27 00:06:11 1.620 00:03:49 01:20:26
1111SM35312MASTROIANNI ROBERTOASD ATL.CITTA' DEI PAPI ANAGNI01:20:30 00:06:14 1.632 00:03:49 01:20:30
1212SM4031371MARTIN DANILOA.S. AMATORI VILLA PAMPHILI01:20:47 00:06:31 1.700 00:03:50 01:20:47
1313SM3544SCARAMUCCI LUCAA.S.C.D. ISOLA SACRA01:20:56 00:06:40 1.736 00:03:50 01:20:55
1414SM4521833ZAMPARELLI UGOG.S. BANCARI ROMANI01:21:02 00:06:46 1.760 00:03:51 01:21:01
1515SM4537BORELLI DANIELEA.S.C.D. ISOLA SACRA01:21:34 00:07:18 1.887 00:03:52 01:21:34
1616SM3551370MARRACINO ANTONIOA.S. AMATORI VILLA PAMPHILI01:21:38 00:07:22 1.902 00:03:52 01:21:38
1717SM4542390DOLDI CORRADOA.S.D. PODISTICA 200701:21:47 00:07:31 1.938 00:03:53 01:21:46
1818SM5512002CERRONI UMBERTOASD ATLETICO MONTEROTONDO01:21:59 00:07:43 1.984 00:03:53 01:21:59
1919SM4042229DE LUCA LUIGIA.S.D. ATLETICA MONTE MARIO01:22:29 00:08:13 2.100 00:03:55 01:22:23
2020SM4051876LO RE CORRADOA.S.D. NOI POCHI INTIMI01:22:29 00:08:13 2.100 00:03:55 01:22:28
2121SM4551369CIRULLI ALESSANDROA.S. AMATORI VILLA PAMPHILI01:22:34 00:08:18 2.119 00:03:55 01:22:34
2222SM4061676ODORISI UGOASD SPARTAN SPORT ACADEMY01:23:07 00:08:51 2.245 00:03:57 01:23:05
2323SM4072DEL NEGRO ROBERTOG.S. BANCARI ROMANI01:23:12 00:08:56 2.264 00:03:57 01:23:12
2424SM4081508COCCHIA DOMENICO ALESSANDROG.S. BANCARI ROMANI01:24:12 00:09:56 2.487 00:04:00 01:24:11
2525SM5022004PIERDOMENICO GIANLUCAASD ANGUILLARA SABAZIA RUNNING CLUB01:24:30 00:10:14 2.553 00:04:00 01:24:28
2626SM12233DI ROMANO GIANLUIGIA.S.D. ATLETICA MONTE MARIO01:24:38 00:10:22 2.582 00:04:01 01:24:32
2727SM5035BRUNO LUCIOA.S.C.D. ISOLA SACRA01:24:44 00:10:28 2.604 00:04:01 01:24:44
2828SM3562246MATTACCHIONI DARIOA.S.D. ATLETICA MONTE MARIO01:24:47 00:10:31 2.615 00:04:01 01:24:46
2929SM5042226CASINI GIOVANNIA.S.D. ATLETICA MONTE MARIO01:25:05 00:10:49 2.680 00:04:02 01:25:03
3030SM4561359IANNOLA IVANG.S. CAT SPORT ROMA01:25:19 00:11:03 2.731 00:04:03 01:25:19
3131SM21368ATTANASIO DANIELEA.S. AMATORI VILLA PAMPHILI01:25:19 00:11:03 2.731 00:04:03 01:25:18
3232SM3572393CARATOZZOLO MARIOASD RUNNER TRAINER01:25:42 00:11:26 2.813 00:04:04 01:25:42
3333SM3581882ROMA FERNANDOA.S.D. ATLETICA ANZIO01:25:48 00:11:32 2.834 00:04:04 01:25:21
3434SM3591666DI MANNO ANTONIOA.S.D. VEGAN POWER TEAM01:25:52 00:11:36 2.848 00:04:04 01:25:44
3535SM5521829SILVESTRI ROBERTOG.S. PETER PAN01:25:54 00:11:38 2.855 00:04:04 01:25:50
361SF3502520CIPRIETTI MICHELAPOD. GRUPPO SOLIDARIETA01:25:55 00:11:39 2.859 00:04:05 01:25:55
3736SM5051380BOTTA ALBERTOPOD. GRUPPO SOLIDARIETA01:25:56 00:11:40 2.862 00:04:05 01:25:55
3837SM4571374SOARES PEREIRA ANTONIO MANUELPOD. GRUPPO SOLIDARIETA01:26:02 00:11:46 2.883 00:04:05 01:26:02
3938SM4582293BARBAROSSA SIMONEATLETICA FORUM SPORT CENTER01:26:03 00:11:47 2.887 00:04:05 01:25:49
4039SM5061378NISTICO' FORTUNATOG.S. CAT SPORT ROMA01:26:06 00:11:50 2.897 00:04:05 01:26:05
4140SM45911CAMILLI LUCAASD ATL.CITTA' DEI PAPI ANAGNI01:26:07 00:11:51 2.901 00:04:05 01:26:07
4241SM45102193PROPERZI ANTONIOA.S. AMATORI VILLA PAMPHILI01:26:11 00:11:55 2.915 00:04:05 01:26:09
4342SM31822PAIELLA MATTEOPODISTICA CASALOTTI01:26:24 00:12:08 2.961 00:04:06 01:26:19
4443SM4091610MANISCALCHI FABIOA.S.D. PODISTICA POMEZIA01:26:35 00:12:19 2.999 00:04:06 01:26:32
4544SM5532505PALERMO FRANCESCOREALE STADO DEI PRESIDI01:26:45 00:12:29 3.034 00:04:07 01:26:45
4645SM40102298CATANIA CLAUDIOATLETICA FORUM SPORT CENTER01:26:51 00:12:35 3.055 00:04:07 01:26:51
4746SM40111576MARZULLO PAOLODUE PONTI SRL01:26:55 00:12:39 3.068 00:04:07 01:26:45
4847SM5072304FOGGIA MASSIMILIANOATLETICA FORUM SPORT CENTER01:27:03 00:12:47 3.096 00:04:08 01:26:57
4948SM45111711SORIANI STEFANORUNNERS FOR EMERGENCY01:27:32 00:13:16 3.195 00:04:09 01:27:26
5049SM42542GIANNATTASIO GIOVANNICIRCOLO CANOTTIERI ANIENE01:27:38 00:13:22 3.216 00:04:09 01:27:22
5150SM45122543CARNEVALI GIORGIOA.S.D. ROMATLETICA FOOTWORKS01:27:43 00:13:27 3.233 00:04:10 01:27:42
5251SM45132184PASCUCCI FABIOA.S. AMATORI VILLA PAMPHILI01:27:48 00:13:32 3.250 00:04:10 01:27:46
5352SM40121913VALENTI LUCAA.S.D. INAPNEA01:28:04 00:13:48 3.304 00:04:11 01:27:58
5453SM5541906FURLAN CLAUDIOMONTI DELLA TOLFA L'AIRONE01:28:08 00:13:52 3.317 00:04:11 01:28:03
5554SM5551771FARGIONE VINCENZOG.S. BANCARI ROMANI01:28:16 00:14:00 3.344 00:04:11 01:28:11
5655SM45141749BIZZARRI NICOLAG.S. BANCARI ROMANI01:28:17 00:14:01 3.347 00:04:11 01:28:15
5756SM5082094CANTERANI ENRICOA.S.D. PFIZER ITALIA RUNNING TEAM01:28:34 00:14:18 3.404 00:04:12 01:28:04
5857SM5091504VENDOLA FABIOFULMINI E SAETTE A.S.D.01:28:37 00:14:21 3.414 00:04:12 01:28:36
5958SM45151377ASHKRE AMDEUHN AYELG.S. CAT SPORT ROMA01:28:45 00:14:29 3.441 00:04:13 01:28:42
6059SM5561614MORETTI DOMENICOBITONTO SPORTIVA01:28:56 00:14:40 3.477 00:04:13 01:28:54
6160SM45161579FORMAI RICCARDOG.S. BANCARI ROMANI01:29:03 00:14:47 3.500 00:04:13 01:28:47
6261SM5572053FALABELLA FABRIZIOUISP CIVITAVECCHIA01:29:04 00:14:48 3.503 00:04:13 01:29:00
6362SM40131557BRAVETTI MARCOLAZIO RUNNERS TEAM A.S.D.01:29:06 00:14:50 3.510 00:04:14 01:29:01
6463SM51883ZALABRA DANIELEA.S.D. ATLETICA NEPI01:29:06 00:14:50 3.510 00:04:14 01:29:01
6564SM35101849POZZI GIORGIOUISP ROMA01:29:40 00:15:24 3.621 00:04:15 01:29:21
6665SM35111363INGRATTA MATTEOASD RUNNER TRAINER01:29:43 00:15:27 3.631 00:04:15 01:29:42
6766SM50102297CARLOS ALBERTO FEDERICOATLETICA FORUM SPORT CENTER01:29:54 00:15:38 3.666 00:04:16 01:29:47
6867SM35129DANDINI ANGELOASD ATL.CITTA' DEI PAPI ANAGNI01:29:58 00:15:42 3.679 00:04:16 01:29:58
6968SM40141776SALVATORE SALVAGGIOA.S.D. NOTO BAROCCA01:30:05 00:15:49 3.702 00:04:16 01:30:05
702SF3501367TIRELLI CECILIARUNNING EVOLUTION COLLINE ROMANE01:30:09 00:15:53 3.715 00:04:17 01:30:09
7169SM40152510INNOCENTI VITTORIOINDIVIDUALI01:30:22 00:16:06 3.756 00:04:17 01:30:16
7270SM40161846LIORI IVANCAGLIARI ATLETICA LEGGERA01:30:25 00:16:09 3.766 00:04:17 01:30:14
7371SM50112153GUGLIELMI MICHELEA.S. AMATORI VILLA PAMPHILI01:30:28 00:16:12 3.775 00:04:17 01:30:24
7472SM61511IADAROLA GIOVANNIG.S.D. LITAL01:30:32 00:16:16 3.788 00:04:18 01:30:17
7573SM71616BASTIANELLI NICOLO'ASD X-SOLID SPORT LAB01:30:38 00:16:22 3.807 00:04:18 01:30:35
7674SM50121690DE VIZIO PAOLORUNNERS FOR EMERGENCY01:30:43 00:16:27 3.823 00:04:18 01:30:42
7775SM40171804ASCOLI CARLOPODISTICA CASALOTTI01:30:52 00:16:36 3.852 00:04:19 01:30:44
7876SM35131893BECCHETTI MAUROPODISTICA SAVONESE01:30:59 00:16:43 3.874 00:04:19 01:30:53
7977SM40181966CALABRESE CLAUDIOASD RUNNER TRAINER01:31:01 00:16:45 3.880 00:04:19 01:30:39
8078SM40191683CARDELLI TIZIANORUNNERS FOR EMERGENCY01:31:04 00:16:48 3.889 00:04:19 01:31:04
8179SM40201644DE PASCALE PASQUALINOA.S.D. LBM SPORT TEAM01:31:09 00:16:53 3.905 00:04:19 01:31:05
8280SM35141373PAVIA MATTEOPOD. GRUPPO SOLIDARIETA01:31:26 00:17:10 3.958 00:04:20 01:31:24
8381SM35151372PECCERILLO DARIOPOD. GRUPPO SOLIDARIETA01:31:26 00:17:10 3.958 00:04:20 01:31:26
8482SM45171886CIGNITTI MASSIMILIANOITALIANA RUNNING ASD01:31:28 00:17:12 3.965 00:04:20 01:30:48
8583SM40211700MARTINOLI MAURIZIORUNNERS FOR EMERGENCY01:31:36 00:17:20 3.990 00:04:21 01:31:30
8684SM35161360AMBROSELLI MARCOASD RUNNER TRAINER01:31:45 00:17:29 4.018 00:04:21 01:31:44
8785SM40221550TIMEUS ALEXRUNCARD FIDAL01:31:46 00:17:30 4.021 00:04:21 01:31:38
8886SM35171941DRAGHI GIOVANNIG.S. CAT SPORT ROMA01:31:50 00:17:34 4.033 00:04:21 01:31:39
8987SM50132076MANCINI TULLIORUNNING EVOLUTION COLLINE ROMANE01:31:54 00:17:38 4.045 00:04:22 01:31:54
9088SM82536PILIA DAMIANONUOVA ATLETICA SESTU01:32:05 00:17:49 4.079 00:04:22 01:31:23
9189SM6022532SQUILLANTE MAURIZIOSCAVO 200001:32:12 00:17:56 4.101 00:04:22 01:32:08
9290SM40232502DE SANTIS DANIELEROMA ECO MARATONA01:32:26 00:18:10 4.144 00:04:23 01:32:25
9391SM5581766OROPALLO FRANCOA.S.D. LBM SPORT TEAM01:32:31 00:18:15 4.159 00:04:23 01:32:21
9492SM50142402SCHIVARDI FABIANOPOD. GRUPPO SOLIDARIETA01:32:40 00:18:24 4.186 00:04:24 01:32:31
9593SM50151631BUSATO PAOLOSABINA MARATHON CLUB01:32:42 00:18:26 4.192 00:04:24 01:32:25
9694SM45182054CARDUCCI AMATOASD ANGUILLARA SABAZIA RUNNING CLUB01:32:42 00:18:26 4.192 00:04:24 01:32:39
9795SM40242404MANCUSO FABIOS.S. LAZIO ATLETICA LEGGERA01:33:05 00:18:49 4.262 00:04:25 01:32:41
9896SM91896CAPOROSSI DAVIDEPODISTI VALMONTONE01:33:07 00:18:51 4.268 00:04:25 01:33:06
9997SM50161714URSO DOMENICORUNNERS FOR EMERGENCY01:33:11 00:18:55 4.280 00:04:25 01:33:01
10098SM50171521CRUDO ANTONELLOATLETICA INPS01:33:30 00:19:14 4.337 00:04:26 01:32:55
10199SM50181864ENA MASSIMILIANOIN APNEA01:33:32 00:19:16 4.343 00:04:26 01:33:26
1023SF5001772LUNGU LUMINITAG.S. BANCARI ROMANI01:33:38 00:19:22 4.361 00:04:26 01:33:13
103100SM5591904ABBATE SALVATORE PANFILOMONTI DELLA TOLFA L'AIRONE01:33:42 00:19:26 4.373 00:04:27 01:33:36
104101SM35181650CAPOCCI ALESSIOVILLA AURELIA SPORTING CLUB01:33:49 00:19:33 4.394 00:04:27 01:33:09
105102SM40251899PAOLINI GIAMPIEROPODISTI VALMONTONE01:33:51 00:19:35 4.399 00:04:27 01:33:31
106103SM101569ADRIANI VALERIODUE PONTI SRL01:33:54 00:19:38 4.408 00:04:27 01:33:49
107104SM40261567BITETTI MARCOA.S.D. ATLETICA ENERGIA ROMA01:33:57 00:19:41 4.417 00:04:27 01:33:51
108105SM45191732MENGARELLI MASSIMILIANOA.S.D. RUN FOR FUN01:34:05 00:19:49 4.441 00:04:28 01:33:50
109106SM50192261TORNARI MARCOA.S.D. ATLETICA MONTE MARIO01:34:06 00:19:50 4.444 00:04:28 01:33:45
110107SM112045FIORANI GABRIELEASD BRAVETTA RUNNERS01:34:08 00:19:52 4.450 00:04:28 01:33:23
111108SM45201606VALLERI GIANLUIGIA.S.D. MAGIC TRAINING01:34:11 00:19:55 4.458 00:04:28 01:33:33
112109SM45212307MAGNOLI LAUROATLETICA FORUM SPORT CENTER01:34:24 00:20:08 4.497 00:04:29 01:33:51
113110SM35191529GATTO CARLOASD INTESATLETICA01:34:26 00:20:10 4.503 00:04:29 01:34:06
114111SM55102114ATZENI PIETROA.S. AMATORI VILLA PAMPHILI01:34:30 00:20:14 4.514 00:04:29 01:34:15
115112SM40272141FEDERICI ALESSANDROA.S. AMATORI VILLA PAMPHILI01:34:33 00:20:17 4.523 00:04:29 01:34:11
116113SM40282143FILIPPONI MARCOA.S. AMATORI VILLA PAMPHILI01:34:35 00:20:19 4.529 00:04:29 01:34:30
117114SM50202378TRAINO LUIGIPOD. GRUPPO SOLIDARIETA01:34:39 00:20:23 4.540 00:04:29 01:34:31
118115SM50211612PAOLETTI FABIOA.S.D. PODISTICA POMEZIA01:34:43 00:20:27 4.552 00:04:30 01:34:40
119116SM45222380VASSELLI MICHELEPOD. GRUPPO SOLIDARIETA01:34:51 00:20:35 4.575 00:04:30 01:34:44
120117SM50222308MOAURO VINCENZOATLETICA FORUM SPORT CENTER01:34:51 00:20:35 4.575 00:04:30 01:34:47
121118SM50232289ALTIERI GIUSEPPEATLETICA FORUM SPORT CENTER01:34:54 00:20:38 4.584 00:04:30 01:34:46
122119SM35201916MAZZEI MARCOG.S. BANCARI ROMANI01:34:58 00:20:42 4.596 00:04:30 01:34:53
123120SM40291608DE RINALDI STEFANOA.S.D. PODISTICA POMEZIA01:34:59 00:20:43 4.599 00:04:30 01:34:56
124121SM45232123BUONOMO ANDREAA.S. AMATORI VILLA PAMPHILI01:35:00 00:20:44 4.601 00:04:30 01:34:35
125122SM40301524BIANCALANA EMILIANOASD PUROSANGUE ATHLETICS CLUB01:35:04 00:20:48 4.613 00:04:31 01:34:59
126123SM40312405POSADO CLAUDIOASD SPIRITI LIBERI POMEZIA01:35:12 00:20:56 4.636 00:04:31 01:34:53
127124SM55111789CAPOTORTI GUIDOA.S.D. TRAIL DEI DUE LAGHI01:35:13 00:20:57 4.639 00:04:31 01:34:20
128125SM121376PORCELLI STEFANOPOD. GRUPPO SOLIDARIETA01:35:21 00:21:05 4.662 00:04:31 01:35:18
129126SM6031898MASELLA LUIGIPODISTI VALMONTONE01:35:22 00:21:06 4.665 00:04:31 01:35:21
130127SM35211519MEGRE BELTRAN ALEXEIRUNCARD FIDAL01:35:25 00:21:09 4.673 00:04:32 01:35:09
131128SM45242096DI MICHELE WALTENIOA.S.D. PFIZER ITALIA RUNNING TEAM01:35:29 00:21:13 4.685 00:04:32 01:35:11
132129SM55122205SIMONELLI FLAVIOA.S. AMATORI VILLA PAMPHILI01:35:30 00:21:14 4.688 00:04:32 01:35:24
133130SM40321630ERCULEI FABRIZIOA.S.D. ATLETICA VILLA GUGLIELMI01:35:33 00:21:17 4.696 00:04:32 01:35:22
134131SM131965ANGELINI MATTEOASD RUNNER TRAINER01:35:35 00:21:19 4.702 00:04:32 01:35:30
135132SM7012236GAVIATI LUIGIA.S.D. ATLETICA MONTE MARIO01:35:53 00:21:37 4.753 00:04:33 01:35:48
136133SM35221877CARELLA MARCOA.S.D. LBM SPORT TEAM01:36:02 00:21:46 4.779 00:04:33 01:35:57
137134SM40332027CAVACINI CLAUDIOASD OLIMPIAEUR CAMP01:36:07 00:21:51 4.793 00:04:34 01:35:42
138135SM40342534CADME PARRASABINA MARATHON CLUB01:36:09 00:21:53 4.799 00:04:34 01:36:08
139136SM50241894TRAVAGLINI MAUROA.S.D. URBE RUNNERS01:36:10 00:21:54 4.801 00:04:34 01:36:09
140137SM35232227CICOGNA ALESSIOA.S.D. ATLETICA MONTE MARIO01:36:11 00:21:55 4.804 00:04:34 01:35:49
141138SM55131820MAZZONI GIANCARLOPODISTICA CASALOTTI01:36:12 00:21:56 4.807 00:04:34 01:36:08
142139SM40352360MELONI SIMONEPOD. GRUPPO SOLIDARIETA01:36:13 00:21:57 4.810 00:04:34 01:35:52
143140SM50251655PUGLIESE FRANCESCOVILLA AURELIA SPORTING CLUB01:36:17 00:22:01 4.821 00:04:34 01:36:15
144141SM45251604MICHELI ANDREAA.S.D. MAGIC TRAINING01:36:18 00:22:02 4.824 00:04:34 01:36:15
145142SM35242262VASSALLO SALVATOREA.S.D. ATLETICA MONTE MARIO01:36:22 00:22:06 4.835 00:04:34 01:36:00
146143SM40361952MOSTORINO RIVERA WILLIAM ALFREDOG.S. CAT SPORT ROMA01:36:23 00:22:07 4.838 00:04:34 01:36:04
147144SM45261657BIZZARRI SERGIOPOD. OSTIA01:36:23 00:22:07 4.838 00:04:34 01:36:19
148145SM45271897CARLUSTI MAURIZIOPODISTI VALMONTONE01:36:28 00:22:12 4.852 00:04:35 01:35:59
149146SM55141702MODICA MARCELLORUNNERS FOR EMERGENCY01:36:32 00:22:16 4.863 00:04:35 01:36:12
150147SM50261803ANNUNZIATA ROSARIOPODISTICA CASALOTTI01:36:40 00:22:24 4.886 00:04:35 01:36:29
151148SM50272101SANGIOVANNI FABIOA.S.D. PFIZER ITALIA RUNNING TEAM01:36:42 00:22:26 4.891 00:04:35 01:36:25
152149SM45282386TRIVELLI ROBERTORUNNING EVOLUTION COLLINE ROMANE01:36:47 00:22:31 4.905 00:04:35 01:36:24
1534SF4016BOSCO HANAA.S.C.D. ISOLA SACRA01:36:48 00:22:32 4.908 00:04:35 01:36:47
154150SM35251974MORACE MATTEOASD RUNNER TRAINER01:36:50 00:22:34 4.914 00:04:36 01:36:26
155151SM142135DI BRANGO SIMONEA.S. AMATORI VILLA PAMPHILI01:36:52 00:22:36 4.919 00:04:36 01:36:34
156152SM50281358BORCAN LAURENTIU ADRIANG.S. CAT SPORT ROMA01:36:55 00:22:39 4.927 00:04:36 01:36:36
157153SM50291985LUCIANI ELIAPOLISPORTIVA COLLI ANIENE ASD01:37:17 00:23:01 4.988 00:04:37 01:36:58
158154SM55152077MELONI LUCIANORUNNING EVOLUTION COLLINE ROMANE01:37:19 00:23:03 4.994 00:04:37 01:37:10
159155SM35262018TOMEI RICCARDOASD GO RUNNING01:37:19 00:23:03 4.994 00:04:37 01:36:39
160156SM55162013SALENTO VINCENZODUE PONTI SRL01:37:32 00:23:16 5.030 00:04:38 01:37:22
161157SM45291651COPPOLA FABRIZIOVILLA AURELIA SPORTING CLUB01:37:34 00:23:18 5.035 00:04:38 01:36:53
162158SM50302106MANESCHI FEDERICOJUVENIA ARL01:37:47 00:23:31 5.071 00:04:38 01:37:35
163159SM152137DI CRISTINA FABIOA.S. AMATORI VILLA PAMPHILI01:37:47 00:23:31 5.071 00:04:38 01:37:37
164160SM50312372ROSSINI MASSIMILIANOPOD. GRUPPO SOLIDARIETA01:37:49 00:23:33 5.076 00:04:38 01:37:27
165161SM45302095CARAVASSILIS MARCOA.S.D. PFIZER ITALIA RUNNING TEAM01:37:49 00:23:33 5.076 00:04:38 01:37:31
166162SM45312051DEL SETTE RAIMONDORUNCARD FIDAL01:37:50 00:23:34 5.079 00:04:38 01:37:36
167163SM55171872GIORGINI MAURIZIOA.S.D. ROMA ROAD RUNNERS CLUB01:37:51 00:23:35 5.082 00:04:38 01:37:08
168164SM50322286TESTA LUIGIMARATHON ROMA CASTELFUSANO01:37:55 00:23:39 5.092 00:04:39 01:37:49
169165SM40371556GALLI EMILIANORUNCARD FIDAL01:37:57 00:23:41 5.098 00:04:39 01:37:52
170166SM35272528MOSCA VALERIOPOD. GRUPPO SOLIDARIETA01:37:57 00:23:41 5.098 00:04:39 01:37:34
171167SM40382349GIORGI DAVIDPOD. GRUPPO SOLIDARIETA01:38:01 00:23:45 5.109 00:04:39 01:37:36
172168SM50331633COLAFIGLI PAOLOSABINA MARATHON CLUB01:38:04 00:23:48 5.117 00:04:39 01:37:47
173169SM40391933CIOCE ANDREAG.S. CAT SPORT ROMA01:38:05 00:23:49 5.120 00:04:39 01:37:33
174170SM6041921CORTESE ANTONIOPODISTICA CIAMPINO01:38:07 00:23:51 5.125 00:04:39 01:38:03
1755SF3512441ROMEO SILVIAPOD. GRUPPO SOLIDARIETA'01:38:11 00:23:55 5.136 00:04:39 01:37:19
1766SF4511768MACINENTI FRANCESCAA.S.D. CENTRO FITNESS MONTELLO01:38:13 00:23:57 5.141 00:04:40 01:37:31
1777SF5011824SALVIONI SIMONAPODISTICA CASALOTTI01:38:13 00:23:57 5.141 00:04:40 01:38:07
178171SM45322100PICCIRILLO MASSIMOA.S.D. PFIZER ITALIA RUNNING TEAM01:38:21 00:24:05 5.163 00:04:40 01:37:46
179172SM50342524SANTONI SESTOPOD. GRUPPO SOLIDARIETA01:38:27 00:24:11 5.179 00:04:40 01:38:19
180173SM55182125CARLUCCI FRANCESCOA.S. AMATORI VILLA PAMPHILI01:38:28 00:24:12 5.182 00:04:40 01:38:25
1818SF4521580BERARDINELLI LOREDANAG.S. BANCARI ROMANI01:38:31 00:24:15 5.190 00:04:40 01:38:16
182174SM35282245MASSETTI ENRICOA.S.D. ATLETICA MONTE MARIO01:38:43 00:24:27 5.222 00:04:41 01:38:22
183175SM35291560MAZZILLI ROBERTOASD ATL.CITTA' DEI PAPI ANAGNI01:38:45 00:24:29 5.227 00:04:41 01:38:45
184176SM45331844BIAGIONI FABIOA.S.D. LBM SPORT TEAM01:38:51 00:24:35 5.243 00:04:41 01:38:40
185177SM45342295CAPASSO RAFFAELEATLETICA FORUM SPORT CENTER01:38:54 00:24:38 5.251 00:04:41 01:38:35
186178SM40401862TANZILLO RAFFAELEGS BANCARI ROMANI01:38:59 00:24:43 5.265 00:04:42 01:38:30
1879SF12383PIMPINELLA FRANCESCARUNNING EVOLUTION COLLINE ROMANE01:39:04 00:24:48 5.278 00:04:42 01:38:55
188179SM45351672DIOTALLEVI STEFANORCC TEVERE REMO01:39:06 00:24:50 5.283 00:04:42 01:38:00
189180SM50352544MOCCALDI GIUSEPPEA.S.D. ROMA ROAD RUNNERS CLUB01:39:07 00:24:51 5.286 00:04:42 01:38:48
190181SM50362291ARCASENZA CLAUDIOATLETICA FORUM SPORT CENTER01:39:08 00:24:52 5.289 00:04:42 01:39:06
191182SM45362517GACCETTA ROMANOA.S.D. LAZIO RUNNERS TEAM01:39:09 00:24:53 5.291 00:04:42 01:39:00
192183SM45371936DANESE ERNESTOG.S. CAT SPORT ROMA01:39:14 00:24:58 5.305 00:04:42 01:38:03
193184SM45381959SEBASTIANELLI FRANCESCOG.S. CAT SPORT ROMA01:39:16 00:25:00 5.310 00:04:43 01:38:56
194185SM45391865CIARCIA FABIOATLETICA INPS01:39:18 00:25:02 5.315 00:04:43 01:38:42
195186SM55191999SIGNORI FRANCESCOA.S.D. TRA LE RIGHE01:39:18 00:25:02 5.315 00:04:43 01:39:07
196187SM45402203SARGENTI MARCOA.S. AMATORI VILLA PAMPHILI01:39:22 00:25:06 5.326 00:04:43 01:38:14
197188SM50371515ROCCHI FABIOTEAM CAMELOT ASD01:39:22 00:25:06 5.326 00:04:43 01:39:18
198189SM40411527CAMPAGNA REMORUNCARD01:39:23 00:25:07 5.328 00:04:43 01:39:19
19910SF22207SPAZIANI IRENEA.S. AMATORI VILLA PAMPHILI01:39:31 00:25:15 5.350 00:04:43 01:39:15
200190SM50382146FRISCIA MICHELEA.S. AMATORI VILLA PAMPHILI01:39:32 00:25:16 5.352 00:04:43 01:39:15
201191SM55202447SCAMARCIO MARIANOPOD. GRUPPO SOLIDARIETA01:39:33 00:25:17 5.355 00:04:43 01:39:18
202192SM40421629VELLUCCI IVANOASD X-SOLID SPORT LAB01:39:57 00:25:41 5.418 00:04:44 01:39:42
203193SM50392030DONVITO ALESSANDROASD OLIMPIAEUR CAMP01:39:57 00:25:41 5.418 00:04:44 01:39:55
204194SM50401637POLIDORI GIORGIOSABINA MARATHON CLUB01:40:05 00:25:49 5.439 00:04:45 01:39:49
205195SM35302047NANNI SIMONEATLETICOM ASD01:40:08 00:25:52 5.446 00:04:45 01:39:27
206196SM161540AUGELLO VINCENZOA.S.D. FLORIDIA RUNNING01:40:09 00:25:53 5.449 00:04:45 01:39:14
207197SM171628VALERI ALESSIOASD X-SOLID SPORT LAB01:40:09 00:25:53 5.449 00:04:45 01:40:04
208198SM35311995BRESSI SALVATOREIPPOLIFE S.S.D.01:40:20 00:26:04 5.478 00:04:46 01:39:45
209199SM40431773DE MATTOS BRUNOA.S.D. LBM SPORT TEAM01:40:20 00:26:04 5.478 00:04:46 01:40:07
210200SM45411502MARIANI SIMONEGIOVANNI SCAVO VELLETRI01:40:21 00:26:05 5.480 00:04:46 01:39:48
211201SM45422389BARBIERI GIAMMARCOA.S.D. ROMATLETICA FOOTWORKS01:40:24 00:26:08 5.488 00:04:46 01:40:21
212202SM50411546BALDI GABRIELEASD PUROSANGUE ATHLETICS CLUB01:40:25 00:26:09 5.491 00:04:46 01:40:12
213203SM35322299CORSI DANIELEATLETICA FORUM SPORT CENTER01:40:32 00:26:16 5.509 00:04:46 01:40:19
214204SM6052421LUCHETTA SERGIOG.S. CAT SPORT ROMA01:40:33 00:26:17 5.511 00:04:46 01:40:14
215205SM40441636PETRACCHINI FRANCESCOSABINA MARATHON CLUB01:40:37 00:26:21 5.522 00:04:46 01:40:18
216206SM6061635MARCELLINI MARCELLOSABINA MARATHON CLUB01:40:37 00:26:21 5.522 00:04:46 01:40:21
21711SF4531663GUERRINI FRANCESCAATLETICA SANTA MARINELLA01:40:37 00:26:21 5.522 00:04:46 01:40:27
21812SF5022083PIZZUTI STEFANIARUNNING EVOLUTION COLLINE ROMANE01:40:38 00:26:22 5.524 00:04:46 01:40:28
219207SM181558DEL MONTE ALESSANDROA.S.D. GO RUNNING01:40:40 00:26:24 5.529 00:04:46 01:39:52
220208SM50422449GIANNINI GIORGIOSABINA MARATHON CLUB01:40:44 00:26:28 5.540 00:04:47 01:40:26
221209SM40451522ZAMPA SIMONERUNCARD FIDAL01:40:47 00:26:31 5.547 00:04:47 01:40:29
222210SM40461601ATZENI ANDREAA.S.D. MAGIC TRAINING01:40:52 00:26:36 5.560 00:04:47 01:40:15
223211SM50431541ISABELLA FAUSTOAS. TRA. ROMA01:40:52 00:26:36 5.560 00:04:47 01:40:24
224212SM45431815GIOVANNINI GIANLUCAPODISTICA CASALOTTI01:40:55 00:26:39 5.568 00:04:47 01:40:48
225213SM6071578RUGGERI RICCARDODUE PONTI SRL01:40:56 00:26:40 5.570 00:04:47 01:40:51
226214SM50442273BOLDRINI ALESSANDROMARATHON ROMA CASTELFUSANO01:40:59 00:26:43 5.578 00:04:47 01:40:56
227215SM45442142FIANO ILARIOA.S. AMATORI VILLA PAMPHILI01:41:01 00:26:45 5.583 00:04:47 01:40:44
228216SM50452448FERRARA PARIDEA.S.D. CORSA DEI SANTI01:41:01 00:26:45 5.583 00:04:47 01:40:07
229217SM55212398MATTIOLI RICCARDOPOD. GRUPPO SOLIDARIETA01:41:04 00:26:48 5.591 00:04:48 01:40:36
230218SM55221552MASTROPIETRO MASSIMOG.S. BANCARI ROMANI01:41:04 00:26:48 5.591 00:04:48 01:40:50
231219SM6082547SMIRNE LUIGIPODISTICA CASALOTTI01:41:10 00:26:54 5.606 00:04:48 01:41:02
232220SM6091778PAOLUCCI MAURIZIORUNCARD FIDAL01:41:11 00:26:55 5.609 00:04:48 01:40:57
23313SF5032252PENDENZA DANIELAA.S.D. ATLETICA MONTE MARIO01:41:12 00:26:56 5.611 00:04:48 01:41:04
234221SM50462424MORGIA ANTONELLOG.S. CAT SPORT ROMA01:41:12 00:26:56 5.611 00:04:48 01:41:02
235222SM50471609DEL GIOVANE IVANOA.S.D. PODISTICA POMEZIA01:41:15 00:26:59 5.619 00:04:48 01:41:11
236223SM45451712STEPHAN FABRIZIORUNNERS FOR EMERGENCY01:41:16 00:27:00 5.622 00:04:48 01:40:55
237224SM50482200SALESI VALERIANOA.S. AMATORI VILLA PAMPHILI01:41:16 00:27:00 5.622 00:04:48 01:40:42
23814SF3522039LENTO FRANCESCAS.S. LAZIO ATLETICA LEGGERA01:41:16 00:27:00 5.622 00:04:48 01:40:50
239225SM60102022BELLI ROBERTOASD OLIMPIAEUR CAMP01:41:18 00:27:02 5.627 00:04:48 01:41:09
240226SM60112234DURASTANTE ANTONIOA.S.D. ATLETICA MONTE MARIO01:41:26 00:27:10 5.647 00:04:49 01:41:07
241227SM191668MARTINI DANIELERUNCARD FIDAL01:41:30 00:27:14 5.657 00:04:49 01:41:16
242228SM40471895PAVIA LUCAA.S.D. ATLETICA TUSCULUM01:41:32 00:27:16 5.662 00:04:49 01:41:01
24315SF5511796MIGNOGNA MARIA GRAZIAA.S.D. TRAIL DEI DUE LAGHI01:41:41 00:27:25 5.685 00:04:49 01:41:28
244229SM40482191PIERANTONI SIMONEA.S. AMATORI VILLA PAMPHILI01:41:43 00:27:27 5.690 00:04:49 01:41:26
245230SM50492040MIGNATTI FABIOS.S. LAZIO ATLETICA LEGGERA01:41:48 00:27:32 5.703 00:04:50 01:41:22
246231SM35331518SANTETTI LUCARUNCARD FIDAL01:41:49 00:27:33 5.705 00:04:50 01:41:37
247232SM60122177MONTAGNINO DARIOA.S. AMATORI VILLA PAMPHILI01:41:50 00:27:34 5.708 00:04:50 01:41:39
248233SM55232240KIRSCHNER ALESSANDROA.S.D. ATLETICA MONTE MARIO01:41:53 00:27:37 5.715 00:04:50 01:41:24
249234SM45462050TONANZI LORENZOA.S.D. URBE RUNNERS01:41:55 00:27:39 5.720 00:04:50 01:41:50
250235SM50502247MINCIACCHI ANDREAA.S.D. ATLETICA MONTE MARIO01:41:55 00:27:39 5.720 00:04:50 01:41:42
251236SM50512309MORI GIANLUCA GIANLUCAATLETICA FORUM SPORT CENTER01:41:57 00:27:41 5.725 00:04:50 01:41:45
25216SF4542034MAROCCHINI IRISASD OLIMPIAEUR CAMP01:41:58 00:27:42 5.728 00:04:50 01:41:45
253237SM6511957RUGGERI ROBERTOG.S. CAT SPORT ROMA01:41:59 00:27:43 5.730 00:04:50 01:41:54
254238SM40491617BELLAVITE LUCAASD X-SOLID SPORT LAB01:41:59 00:27:43 5.730 00:04:50 01:41:20
255239SM35341744FABRINI VALENTINOA.S.D. MAGIC TRAINING01:41:59 00:27:43 5.730 00:04:50 01:41:27
256240SM45471602BIANCHINI ALESSANDROA.S.D. MAGIC TRAINING01:41:59 00:27:43 5.730 00:04:50 01:41:21
257241SM60131741GAUDIOSO ERNESTODUE PONTI SRL01:42:03 00:27:47 5.740 00:04:50 01:41:52
258242SM35352385STRABIOLI MARCORUNNING EVOLUTION COLLINE ROMANE01:42:04 00:27:48 5.743 00:04:50 01:41:55
259243SM45481562DI GIANNICOLA EMILIANOA.S.D. PODISTICA ALSIVM LADISPOLI01:42:06 00:27:50 5.748 00:04:51 01:41:36
260244SM60142438ZACCHEO STEFANOA.S.D. LIBERTAS OSTIA RUNNER AVIS01:42:09 00:27:53 5.755 00:04:51 01:41:23
261245SM50522092BRUNETTI BRUNOA.S.D. PFIZER ITALIA RUNNING TEAM01:42:10 00:27:54 5.758 00:04:51 01:41:04
262246SM50532415GALATI ANTONIOG.S. CAT SPORT ROMA01:42:11 00:27:55 5.760 00:04:51 01:42:03
263247SM40502230DE SOLE ALBERTOA.S.D. ATLETICA MONTE MARIO01:42:11 00:27:55 5.760 00:04:51 01:40:32
264248SM50541927BEVILACQUA GIOVANNIG.S. CAT SPORT ROMA01:42:12 00:27:56 5.763 00:04:51 01:42:05
265249SM40512128CIAVAGLIA FEDERICOA.S. AMATORI VILLA PAMPHILI01:42:17 00:28:01 5.775 00:04:51 01:42:06
266250SM35361530BIANCHI RICCARDORUNCARD FIDAL01:42:18 00:28:02 5.778 00:04:51 01:42:07
267251SM50551993ZIMEI FABRIZIOCALCATERRA SPORT ASD01:42:18 00:28:02 5.778 00:04:51 01:42:07
268252SM6522399PAONE GIANNIPOD. GRUPPO SOLIDARIETA01:42:19 00:28:03 5.780 00:04:51 01:42:17
269253SM50562527MASIELLO GIUSEPPEPOD. GRUPPO SOLIDARIETA01:42:20 00:28:04 5.783 00:04:51 01:41:56
270254SM60151813COPPOLA FABIOPODISTICA CASALOTTI01:42:21 00:28:05 5.785 00:04:51 01:42:14
271255SM45491677ALESSANDRELLI STEFANORUNNERS FOR EMERGENCY01:42:23 00:28:07 5.790 00:04:51 01:42:17
272256SM45502171MASTROLUCA MATTEOA.S. AMATORI VILLA PAMPHILI01:42:25 00:28:09 5.795 00:04:51 01:42:02
273257SM45512254PICCHI SIMONEA.S.D. ATLETICA MONTE MARIO01:42:27 00:28:11 5.800 00:04:52 01:42:07
274258SM45521675TOLAI BARTALI ANDREARCC TEVERE REMO01:42:30 00:28:14 5.808 00:04:52 01:41:23
275259SM40521703NAZZARRO GIUSEPPERUNNERS FOR EMERGENCY01:42:32 00:28:16 5.813 00:04:52 01:42:13
27617SF4021716YORK JESSICARUNNERS FOR EMERGENCY01:42:32 00:28:16 5.813 00:04:52 01:42:07
277260SM35371514BELLOMI STEFANORUNCARD FIDAL01:42:33 00:28:17 5.815 00:04:52 01:42:27
278261SM45531867FRAIOLI FRANCESCORUNCARD FIDAL01:42:35 00:28:19 5.820 00:04:52 01:42:33
279262SM202290ANNIS FABRIZIOATLETICA FORUM SPORT CENTER01:42:40 00:28:24 5.832 00:04:52 01:42:06
280263SM50572318AMATO BRUNOPOD. GRUPPO SOLIDARIETA01:42:40 00:28:24 5.832 00:04:52 01:42:36
28118SF4551554DI BONAVENTURA ALESSIA1/2 MARATONA A STAFFETTA01:42:45 00:28:29 5.845 00:04:52 01:42:27
282264SM40531751ANDOLINA ANDREAA.S.C.D. ISOLA SACRA01:42:46 00:28:30 5.847 00:04:52 01:42:21
283265SM212514TANTALO SILVANOA.S.D. TRIATHLON OSTIA01:42:51 00:28:35 5.860 00:04:53 01:41:55
284266SM50582425NASUTI FRANCESCOG.S. CAT SPORT ROMA01:42:51 00:28:35 5.860 00:04:53 01:42:19
28519SF4562364PIRAS ROBERTAPOD. GRUPPO SOLIDARIETA01:42:53 00:28:37 5.865 00:04:53 01:42:21
286267SM50592305IOZZIA CORRADOATLETICA FORUM SPORT CENTER01:42:59 00:28:43 5.879 00:04:53 01:42:24
287268SM45542350GULINA VINCENZOPOD. GRUPPO SOLIDARIETA01:43:03 00:28:47 5.889 00:04:53 01:42:52
288269SM55242204SIGNORINI LUCAA.S. AMATORI VILLA PAMPHILI01:43:05 00:28:49 5.894 00:04:53 01:42:28
289270SM50602093CAGGIA DANILOA.S.D. PFIZER ITALIA RUNNING TEAM01:43:06 00:28:50 5.896 00:04:53 01:42:43
290271SM45551664SBORDONI FULVIOAMICI PARCO CASTELLI ROMANI01:43:12 00:28:56 5.911 00:04:54 01:42:25
291272SM222231DI NICOLA MATTEOA.S.D. ATLETICA MONTE MARIO01:43:13 00:28:57 5.914 00:04:54 01:42:14
292273SM55252274CAPONE GAETANOMARATHON ROMA CASTELFUSANO01:43:18 00:29:02 5.926 00:04:54 01:42:45
293274SM50611605TALERICO SALVATOREA.S.D. MAGIC TRAINING01:43:21 00:29:05 5.933 00:04:54 01:43:17
294275SM45561866MARAVIGLIA LUCATEAM CAMELOT01:43:23 00:29:07 5.938 00:04:54 01:42:47
295276SM40542270DI MASCIO DANIELERUNCARD FIDAL01:43:25 00:29:09 5.943 00:04:54 01:43:02
296277SM55261987PICANO ENRICOPOLISPORTIVA COLLI ANIENE ASD01:43:26 00:29:10 5.945 00:04:54 01:42:46
297278SM7021947MAISANO SANTOG.S. CAT SPORT ROMA01:43:27 00:29:11 5.948 00:04:54 01:43:22
298279SM50622167MARCOCCI MARCOA.S. AMATORI VILLA PAMPHILI01:43:27 00:29:11 5.948 00:04:54 01:43:04
299280SM35382176MONGELLUZZO LUIGIA.S. AMATORI VILLA PAMPHILI01:43:28 00:29:12 5.950 00:04:54 01:43:09
300281SM45571861RANIERI CLAUDIOA.S.D. ATLETICA TUSCULUM01:43:33 00:29:17 5.962 00:04:55 01:42:31
30120SF4572105ESPOSITI MARZIAJUVENIA ARL01:43:33 00:29:17 5.962 00:04:55 01:43:26
302282SM45581860MOGLIANETTI GIANLUCAA.S.D. ATLETICA TUSCULUM01:43:33 00:29:17 5.962 00:04:55 01:42:31
303283SM6531901BONANNI ANTONIOA.S.D. PIANO MA ARRIVIAMO01:43:38 00:29:22 5.975 00:04:55 01:43:11
304284SM232515LOLLI MASSIMILIANOA.S.D. TRIATHLON OSTIA01:43:40 00:29:24 5.980 00:04:55 01:42:44
305285SM55272283RAMPOGNA MARCOMARATHON ROMA CASTELFUSANO01:43:40 00:29:24 5.980 00:04:55 01:43:24
306286SM50632375STOPPINI GIAMPAOLOPOD. GRUPPO SOLIDARIETA01:43:41 00:29:25 5.982 00:04:55 01:43:12
307287SM50642271BRASILI LUIGINODUE PONTI SRL01:43:42 00:29:26 5.984 00:04:55 01:43:30
308288SM40552138DI GRAZIA IVAN DANIELA.S. AMATORI VILLA PAMPHILI01:43:47 00:29:31 5.996 00:04:55 01:43:33
309289SM241583MATRANGA GIOVANNIA.S.D. ATLETICA ENERGIA ROMA01:43:56 00:29:40 6.018 00:04:56 01:42:51
310290SM45592355MARIANECCI FABIOPOD. GRUPPO SOLIDARIETA01:44:02 00:29:46 6.033 00:04:56 01:43:31
31121SF4582351LIPPI FRANCESCAPOD. GRUPPO SOLIDARIETA01:44:08 00:29:52 6.047 00:04:56 01:43:25
312291SM55282443IACONO FEDERICORUNNING EVOLUTION COLLINE ROMANE01:44:10 00:29:54 6.052 00:04:56 01:43:33
313292SM50652179MORI ALESSANDROA.S. AMATORI VILLA PAMPHILI01:44:18 00:30:02 6.071 00:04:57 01:43:43
314293SM50661673LAVITOLA LIVIORCC TEVERE REMO01:44:20 00:30:04 6.076 00:04:57 01:43:14
315294SM50672174MICHETTI GABRIELEA.S. AMATORI VILLA PAMPHILI01:44:27 00:30:11 6.093 00:04:57 01:43:26
316295SM50682243MAGRINI FABIOA.S.D. ATLETICA MONTE MARIO01:44:28 00:30:12 6.095 00:04:57 01:44:16
317296SM35392353LUCIANI LUCAPOD. GRUPPO SOLIDARIETA01:44:28 00:30:12 6.095 00:04:57 01:44:06
318297SM40562302DI LORETO DANIELEATLETICA FORUM SPORT CENTER01:44:29 00:30:13 6.098 00:04:57 01:43:55
319298SM45601939DE FABIIS MASSIMILIANOG.S. CAT SPORT ROMA01:44:29 00:30:13 6.098 00:04:57 01:44:13
320299SM40571586SCAGNETTI MARCORM32101:44:33 00:30:17 6.107 00:04:58 01:43:31
321300SM40581989AMICI ALESSANDROA.S.D. ATLETICA PEGASO01:44:34 00:30:18 6.110 00:04:58 01:43:51
322301SM251549RIPĂ€ GIANLUCAOLGIATA 20.1201:44:38 00:30:22 6.119 00:04:58 01:44:16
323302SM50692156IORIO MASSIMOA.S. AMATORI VILLA PAMPHILI01:44:40 00:30:24 6.124 00:04:58 01:44:05
324303SM50702281POLLIO MASSIMOMARATHON ROMA CASTELFUSANO01:44:41 00:30:25 6.126 00:04:58 01:44:06
325304SM35401996DANUBIO SAVERIOIPPOLIFE S.S.D01:44:44 00:30:28 6.133 00:04:58 01:44:17
326305SM55292315SPADAFORA STEFANOATLETICA FORUM SPORT CENTER01:44:46 00:30:30 6.138 00:04:58 01:44:13
327306SM50711539FAZIOLI FRANCO9,92 RUNNING ASD01:44:47 00:30:31 6.141 00:04:58 01:44:29
328307SM50721571CAMPANELLI ANDREADUE PONTI SRL01:44:49 00:30:33 6.145 00:04:58 01:44:35
329308SM40592157IRRONEO EMILIANOA.S. AMATORI VILLA PAMPHILI01:44:51 00:30:35 6.150 00:04:58 01:44:18
330309SM45612525TONI SIMONEPOD. GRUPPO SOLIDARIETA01:44:51 00:30:35 6.150 00:04:58 01:44:13
331310SM55301574GIANNINI MAURODUE PONTI SRL01:44:53 00:30:37 6.155 00:04:58 01:44:43
332311SM45621686COSTI SERGIORUNNERS FOR EMERGENCY01:44:54 00:30:38 6.157 00:04:59 01:44:16
333312SM50731780COLUCCI FABIODUE PONTI SRL01:44:59 00:30:43 6.169 00:04:59 01:44:51
334313SM50742348GALLOTTI EDOARDOPOD. GRUPPO SOLIDARIETA01:45:04 00:30:48 6.181 00:04:59 01:44:48
335314SM50751728VITRANO SALVATOREAS ALBATROS ROMA01:45:06 00:30:50 6.186 00:04:59 01:44:40
336315SM50762062AURELI MASSIMORUNNING EVOLUTION COLLINE ROMANE01:45:10 00:30:54 6.195 00:04:59 01:45:01
337316SM55312036CALICCHIA WALTERS.S. LAZIO ATLETICA LEGGERA01:45:16 00:31:00 6.209 00:05:00 01:44:51
338317SM60161543MUSETTI DIEGOA.S.D. TRA LE RIGHE01:45:17 00:31:01 6.211 00:05:00 01:44:24
339318SM50771775BORTOLAMI MASSIMOUISP ROMA01:45:18 00:31:02 6.214 00:05:00 01:45:02
340319SM50782225CARPENTIERI FABIOA.S.D. ATLETICA MONTE MARIO01:45:22 00:31:06 6.223 00:05:00 01:45:05
341320SM45631835COSTANZO SILVESTROA.S.D. RINCORRO01:45:25 00:31:09 6.230 00:05:00 01:44:39
34222SF31603CIOCCHETTI VALERIAA.S.D. MAGIC TRAINING01:45:27 00:31:11 6.235 00:05:00 01:45:01
343321SM45642545CECCARELLI CLAUDIORUNCARD FIDAL01:45:28 00:31:12 6.237 00:05:00 01:45:02
344322SM50792306IRRANCA DOMENICOATLETICA FORUM SPORT CENTER01:45:30 00:31:14 6.242 00:05:00 01:44:23
345323SM50802288VENTUCCI ALESSANDROMARATHON ROMA CASTELFUSANO01:45:31 00:31:15 6.244 00:05:00 01:45:05
346324SM261568FRANGELLA ALESSANDROAMICI PARCO CASTELLI ROMANI01:45:32 00:31:16 6.247 00:05:00 01:44:53
347325SM40601536LANZI DANIELERUNCARD FIDAL01:45:32 00:31:16 6.247 00:05:00 01:45:22
348326SM55322014MOSCATELLI STEFANOA.S.D. ATLETICA ENERGIA ROMA01:45:34 00:31:18 6.251 00:05:00 01:45:13
349327SM50812041NATALINI PAOLOS.S. LAZIO ATLETICA LEGGERA01:45:35 00:31:19 6.254 00:05:00 01:45:09
350328SM55331745PESCE ROBERTOA.S.D. MAGIC TRAINING01:45:39 00:31:23 6.263 00:05:01 01:45:24
351329SM50822086ROSCIOLI MAURORUNNING EVOLUTION COLLINE ROMANE01:45:40 00:31:24 6.265 00:05:01 01:45:04
352330SM55341694GUIDOBALDI ALBERTORUNNERS FOR EMERGENCY01:45:43 00:31:27 6.272 00:05:01 01:45:20
353331SM45651859MEZZACANE VINCENZORUNCARD FIDAL01:45:43 00:31:27 6.272 00:05:01 01:45:13
354332SM45661787CARLONI LORISG.S. BANCARI ROMANI01:45:45 00:31:29 6.277 00:05:01 01:45:42
355333SM50831705PECORARO SERGIORUNNERS FOR EMERGENCY01:45:48 00:31:32 6.284 00:05:01 01:45:29
35623SF5042253PERUZZI LAURAA.S.D. ATLETICA MONTE MARIO01:45:52 00:31:36 6.293 00:05:01 01:45:32
357334SM55352158LA MARRA RINALDOA.S. AMATORI VILLA PAMPHILI01:45:57 00:31:41 6.305 00:05:02 01:44:53
358335SM40612058DI MASCIO GIANLUCARUNNERS FOR EMERGENCY01:45:58 00:31:42 6.307 00:05:02 01:45:37
359336SM50841719CAROZZA ANTONIOA.S.D. ATLETICA PEGASO01:46:00 00:31:44 6.312 00:05:02 01:45:46
360337SM35411523VERZICCO ALESSANDRORUNCARD FIDAL01:46:03 00:31:47 6.319 00:05:02 01:45:45
361338SM55361988VELLINI MASSIMOPOLISPORTIVA COLLI ANIENE ASD01:46:06 00:31:50 6.326 00:05:02 01:45:26
362339SM45672185PATRIARCA ROBERTOA.S. AMATORI VILLA PAMPHILI01:46:07 00:31:51 6.328 00:05:02 01:45:20
363340SM40622403SPERANZA MARCOPOD. GRUPPO SOLIDARIETA01:46:12 00:31:56 6.340 00:05:02 01:45:06
364341SM50852341FOLCHI GABRIELEPOD. GRUPPO SOLIDARIETA01:46:14 00:31:58 6.344 00:05:02 01:45:58
365342SM50861928BIANCO GIUSEPPEG.S. CAT SPORT ROMA01:46:15 00:31:59 6.347 00:05:02 01:45:46
366343SM45681670CASTAGNA ANTONIORCC TEVERE REMO01:46:20 00:32:04 6.358 00:05:03 01:45:14
367344SM55372248MONDELLO DINOA.S.D. ATLETICA MONTE MARIO01:46:23 00:32:07 6.365 00:05:03 01:45:55
36824SF5051707PESAVENTO LIVIARUNNERS FOR EMERGENCY01:46:29 00:32:13 6.379 00:05:03 01:46:08
369345SM45691510GREGORIO CRISTIANOOSTIA FAMILYRUNNING01:46:30 00:32:14 6.381 00:05:03 01:46:07
370346SM55381542LA MONTAGNA CLEMENTERUNCARD FIDAL01:46:32 00:32:16 6.386 00:05:03 01:46:09
371347SM55392369RASO AGOSTINOPOD. GRUPPO SOLIDARIETA01:46:40 00:32:24 6.404 00:05:04 01:45:56
37225SF5061685CONTI CLAUDIARUNNERS FOR EMERGENCY01:46:44 00:32:28 6.414 00:05:04 01:46:24
373348SM50871955PESCHISOLIDO FABIOG.S. CAT SPORT ROMA01:46:45 00:32:29 6.416 00:05:04 01:46:33
374349SM40631597ORSINO GUGLIELMOA.S.D. ATLETICA VILLA GUGLIELMI01:46:49 00:32:33 6.425 00:05:04 01:45:32
375350SM45701680BIAGIOLI MARCORUNNERS FOR EMERGENCY01:46:52 00:32:36 6.432 00:05:04 01:46:13
376351SM55401814FATTORI MARCOPODISTICA CASALOTTI01:47:01 00:32:45 6.452 00:05:05 01:46:38
377352SM50881740PASSARO ERRICOA.S.D. ATLETICA ANZIO01:47:05 00:32:49 6.461 00:05:05 01:46:12
37826SF5071892JACOROSSI RAFFAELARUNCARD FIDAL01:47:05 00:32:49 6.461 00:05:05 01:46:17
379353SM50891857LEONARDI ANTONIOA.S.D. RINCORRO01:47:06 00:32:50 6.464 00:05:05 01:46:21
380354SM35421973MINELLA CALUDIOASD RUNNER TRAINER01:47:11 00:32:55 6.475 00:05:05 01:46:47
381355SM45712296CAPRIOTTI GIANFILIPPOATLETICA FORUM SPORT CENTER01:47:18 00:33:02 6.491 00:05:05 01:46:15
38227SF5082276DI GIOVANNI CLAUDIAMARATHON ROMA CASTELFUSANO01:47:21 00:33:05 6.498 00:05:06 01:46:48
38328SF3532235GALEOTTI FRANCESCAA.S.D. ATLETICA MONTE MARIO01:47:26 00:33:10 6.509 00:05:06 01:47:05
384356SM50902529CASTILLO PANEZO GUIDO FAVIOA.S.D. ATLETICA MONTE MARIO01:47:27 00:33:11 6.511 00:05:06 01:46:45
385357SM45721561COSCIONE LUIGIA.S.D. PODISTICA ALSIVM LADISPOLI01:47:28 00:33:12 6.514 00:05:06 01:47:01
386358SM55411910VOZZOLO ANTONIOASD SPORT EMOTION01:47:30 00:33:14 6.518 00:05:06 01:47:18
387359SM50912097FONTANELLA NICOLAA.S.D. PFIZER ITALIA RUNNING TEAM01:47:32 00:33:16 6.523 00:05:06 01:46:27
388360SM50922445MORELLI GIUSEPPEPOD. GRUPPO SOLIDARIETA01:47:33 00:33:17 6.525 00:05:06 01:46:56
389361SM40642148GARGANO GIACOMOA.S. AMATORI VILLA PAMPHILI01:47:35 00:33:19 6.529 00:05:06 01:46:26
390362SM50932067CERA CLAUCORUNNING EVOLUTION COLLINE ROMANE01:47:46 00:33:30 6.554 00:05:07 01:47:36
391363SM55421991MARTORELLI ROBERTOA.S.D. VIRTUS VILLA ADA01:47:46 00:33:30 6.554 00:05:07 01:47:11
392364SM35432163MAGGI ANGELOA.S. AMATORI VILLA PAMPHILI01:47:47 00:33:31 6.556 00:05:07 01:47:29
393365SM40651831SANTORO FABRIZIOA.S.D. RINCORRO01:47:49 00:33:33 6.561 00:05:07 01:47:02
394366SM55431733MUSTO ANGELO RAFFAELEA.S.D. RUN FOR FUN01:47:51 00:33:35 6.565 00:05:07 01:47:45
395367SM45732216VERZINO ANTONIOA.S. AMATORI VILLA PAMPHILI01:47:56 00:33:40 6.577 00:05:07 01:47:34
396368SM50942122BUONFRATE MASSIMOA.S. AMATORI VILLA PAMPHILI01:47:57 00:33:41 6.579 00:05:07 01:46:50
397369SM45741967CAVOLATA ANDREAASD RUNNER TRAINER01:48:02 00:33:46 6.590 00:05:07 01:47:08
398370SM50952241LUCA' DANILOA.S.D. ATLETICA MONTE MARIO01:48:03 00:33:47 6.592 00:05:08 01:47:41
39929SF3542260TONNI MICHELAA.S.D. ATLETICA MONTE MARIO01:48:03 00:33:47 6.592 00:05:08 01:47:50
400371SM50962292AVOLIO GIUSEPPEATLETICA FORUM SPORT CENTER01:48:05 00:33:49 6.597 00:05:08 01:47:22
40130SF4592126CASAMASSIMA RITAA.S. AMATORI VILLA PAMPHILI01:48:05 00:33:49 6.597 00:05:08 01:47:57
402372SM35442317TROIANI DAVIDEATLETICA FORUM SPORT CENTER01:48:05 00:33:49 6.597 00:05:08 01:46:58
403373SM55441594LODDO ALESSANDROA.S.D. ATLETICA VILLA GUGLIELMI01:48:13 00:33:57 6.615 00:05:08 01:47:44
404374SM271869MONTALDI SIMONEOSTIA ANTICA ATHLETAE01:48:13 00:33:57 6.615 00:05:08 01:47:26
405375SM40661381MEBRAHTU JOSEPH ITALOASD WAR - WIN ALL RACES01:48:14 00:33:58 6.617 00:05:08 01:48:10
406376SM6541506CASTELLANA LEONEG.S. BANCARI ROMANI01:48:21 00:34:05 6.632 00:05:08 01:48:18
407377SM40672008FANARI MARCORUNCARD FIDAL01:48:23 00:34:07 6.637 00:05:08 01:47:48
40831SF5091878TRAVAGLIATI PATRIZIAUISP ROMA01:48:27 00:34:11 6.646 00:05:09 01:48:18
409378SM60172362PERRONE CAPANO MARCOPOD. GRUPPO SOLIDARIETA01:48:30 00:34:14 6.652 00:05:09 01:47:56
410379SM55452190PIANESE TOBIAA.S. AMATORI VILLA PAMPHILI01:48:30 00:34:14 6.652 00:05:09 01:48:20
41132SF4031537GENOVESE MERIA.S.D. LBM SPORT TEAM01:48:30 00:34:14 6.652 00:05:09 01:48:02
412380SM40681997ZUCCHERI EMANUELIPPOLIFE SSD01:48:31 00:34:15 6.655 00:05:09 01:47:55
413381SM50972132CORIROSSI MASSIMILIANOA.S. AMATORI VILLA PAMPHILI01:48:34 00:34:18 6.661 00:05:09 01:48:11
414382SM40692379TRAVAGLIONE ETTOREPOD. GRUPPO SOLIDARIETA01:48:36 00:34:20 6.666 00:05:09 01:47:32
41533SF4042321BINI TIZIANAPOD. GRUPPO SOLIDARIETA01:48:39 00:34:23 6.672 00:05:09 01:47:34
416383SM55461661ZUCCARI UGOPOD. OSTIA01:48:45 00:34:29 6.686 00:05:09 01:48:17
41734SF45101823RINALDI SIMONAPODISTICA CASALOTTI01:48:49 00:34:33 6.694 00:05:10 01:48:42
418384SM40701693DAVIDE CORDUARUNNERS FOR EMERGENCY01:48:51 00:34:35 6.699 00:05:10 01:48:30
41935SF3552250PAOLUCCI VALENTINAA.S.D. ATLETICA MONTE MARIO01:48:53 00:34:37 6.703 00:05:10 01:48:39
420385SM40711853PIERLUIGI FELICIRUNCARD FIDAL01:48:53 00:34:37 6.703 00:05:10 01:48:26
421386SM40721739CIOCE MICHELEA.S.D. LBM SPORT TEAM01:48:55 00:34:39 6.708 00:05:10 01:48:12
42236SF41782TANCREDI VALERIADUE PONTI SRL01:48:55 00:34:39 6.708 00:05:10 01:48:43
423387SM7032387FIORANI RICCARDOSCAVO 200001:48:56 00:34:40 6.710 00:05:10 01:48:49
424388SM55471757MOORE PAULA.S.C.D. ISOLA SACRA01:48:57 00:34:41 6.712 00:05:10 01:47:40
425389SM35451535COLELLA CIRORUNCARD FIDAL01:48:58 00:34:42 6.714 00:05:10 01:48:47
426390SM45751366GIAMMANCO GIOVANNIA.S.D. FORHANS TEAM01:49:03 00:34:47 6.725 00:05:10 01:48:53
42737SF4052131CORINALDESI FEDERICAA.S. AMATORI VILLA PAMPHILI01:49:06 00:34:50 6.732 00:05:10 01:49:03
428391SM50982522FIORAVANTI MARCOPOD. GRUPPO SOLIDARIETA01:49:09 00:34:53 6.738 00:05:11 01:49:05
429392SM40731975NADDEO LUCAASD RUNNER TRAINER01:49:15 00:34:59 6.752 00:05:11 01:48:21
43038SF4062508MAGNAGO LISAPODISTI MARATONA DI ROMA01:49:16 00:35:00 6.754 00:05:11 01:48:51
431393SM45761575PETTINELLI CRISTIANODUE PONTI SRL01:49:16 00:35:00 6.754 00:05:11 01:48:50
432394SM55482120BORZI ALESSANDROA.S. AMATORI VILLA PAMPHILI01:49:17 00:35:01 6.756 00:05:11 01:49:08
433395SM60182232DI NICOLA MAUROA.S.D. ATLETICA MONTE MARIO01:49:17 00:35:01 6.756 00:05:11 01:48:46
434396SM55492178MONTEBELLI DANIELEA.S. AMATORI VILLA PAMPHILI01:49:18 00:35:02 6.758 00:05:11 01:48:55
435397SM55501520ZATTINI ROBERTORUNCARD FIDAL01:49:18 00:35:02 6.758 00:05:11 01:48:51
436398SM55511660MICO' FABRIZIOPOD. OSTIA01:49:19 00:35:03 6.760 00:05:11 01:48:53
437399SM55521589AUTELITANO G. ANDREAA.S.D. ATLETICA VILLA GUGLIELMI01:49:20 00:35:04 6.762 00:05:11 01:49:01
438400SM55532244MARTINO FRANCESCOA.S.D. ATLETICA MONTE MARIO01:49:23 00:35:07 6.769 00:05:11 01:49:08
439401SM40742213TREGLIA PAOLOA.S. AMATORI VILLA PAMPHILI01:49:24 00:35:08 6.771 00:05:11 01:48:30
44039SF51742DRESDA ORNELLADUE PONTI SRL01:49:24 00:35:08 6.771 00:05:11 01:49:13
441402SM40752206SORRENTI LUIGIA.S. AMATORI VILLA PAMPHILI01:49:25 00:35:09 6.773 00:05:11 01:49:08
44240SF50102139DI SALVATORE ANNAA.S. AMATORI VILLA PAMPHILI01:49:28 00:35:12 6.780 00:05:12 01:49:22
443403SM55542186PATRIZI LUIGIA.S. AMATORI VILLA PAMPHILI01:49:31 00:35:15 6.786 00:05:12 01:48:49
444404SM50991505DE PINTO LEONARDOA.S.D ATLETICA ENERGIA ROMA01:49:32 00:35:16 6.789 00:05:12 01:48:26
445405SM501001832VITTA GIUSEPPEG.P. PERSOMIL01:49:38 00:35:22 6.802 00:05:12 01:49:08
446406SM501012065CATALDI FRANCESCORUNNING EVOLUTION COLLINE ROMANE01:49:39 00:35:23 6.804 00:05:12 01:49:03
44741SF45111884SABINI FLAMINIACIRCOLO CANOTTIERI ANIENE01:49:40 00:35:24 6.806 00:05:12 01:49:09
448407SM60192037CAMPONESCHI GIUSEPPES.S. LAZIO ATLETICA LEGGERA01:49:45 00:35:29 6.817 00:05:12 01:49:00
449408SM40761738ROSSI DEL MONTE SIMONERUNCARD FIDAL01:49:49 00:35:33 6.825 00:05:13 01:48:58
450409SM6552006DIONISI GIUSEPPEGENZANO MARATHON01:49:53 00:35:37 6.834 00:05:13 01:49:43
451410SM40772144FIORETTI FABIOA.S. AMATORI VILLA PAMPHILI01:49:53 00:35:37 6.834 00:05:13 01:49:30
45242SF3561970DI BRACCIO ALESSANDROASD RUNNER TRAINER01:49:56 00:35:40 6.841 00:05:13 01:49:02
45343SF45122055ALESSANDRELLI MARUSKARUNNERS FOR EMERGENCY01:50:07 00:35:51 6.864 00:05:13 01:49:46
454411SM55552074FRATTESI PAOLORUNNING EVOLUTION COLLINE ROMANE01:50:12 00:35:56 6.875 00:05:14 01:49:26
455412SM281760ROMANI RICCARDOA.S.C.D. ISOLA SACRA01:50:14 00:35:58 6.879 00:05:14 01:49:03
456413SM501021761ROMANI FABIOA.S.C.D. ISOLA SACRA01:50:14 00:35:58 6.879 00:05:14 01:49:03
457414SM501032432SERINO GERARDOG.S. CAT SPORT ROMA01:50:16 00:36:00 6.884 00:05:14 01:50:08
458415SM55561687CRESCENZI FEDERICORUNNERS FOR EMERGENCY01:50:16 00:36:00 6.884 00:05:14 01:49:53
459416SM501042269BATTAGLIA DOMENICORUNCARD FIDAL01:50:17 00:36:01 6.886 00:05:14 01:49:41
460417SM45771826TESSA YURIPODISTICA CASALOTTI01:50:18 00:36:02 6.888 00:05:14 01:49:31
461418SM501051646TORDI FABRIZIOA.S.D. LBM SPORT TEAM01:50:22 00:36:06 6.897 00:05:14 01:50:09
462419SM501062150GOSTOLI GIANCLAUDIOA.S. AMATORI VILLA PAMPHILI01:50:25 00:36:09 6.903 00:05:14 01:49:52
46344SF62410CONCAS TATIANAG.S. CAT SPORT ROMA01:50:27 00:36:11 6.907 00:05:14 01:50:18
464420SM292117BEDODI ALBERTOA.S. AMATORI VILLA PAMPHILI01:50:28 00:36:12 6.909 00:05:14 01:49:39
465421SM7042427SALATINO GIUSEPPEG.S. CAT SPORT ROMA01:50:33 00:36:17 6.920 00:05:15 01:50:25
466422SM501071783TORDI STEFANODUE PONTI SRL01:50:36 00:36:20 6.926 00:05:15 01:49:58
467423SM45782046SCHINA MASSIMILIANOASD BRAVETTA RUNNERS01:50:37 00:36:21 6.929 00:05:15 01:49:53
468424SM6562043CROBU GIUSEPPINOASD BRAVETTA RUNNERS01:50:37 00:36:21 6.929 00:05:15 01:49:52
46945SF45131544GALOTTI CRISTIANAA.S.D. TRA LE RIGHE01:50:38 00:36:22 6.931 00:05:15 01:49:45
470425SM60202010FULVIO MARCODUE PONTI SRL01:50:39 00:36:23 6.933 00:05:15 01:50:28
471426SM501082358MAURI ANGELOPOD. GRUPPO SOLIDARIETA01:50:41 00:36:25 6.937 00:05:15 01:50:23
472427SM45792396CEROCCHI ALESSANDROPOD. GRUPPO SOLIDARIETA01:50:41 00:36:25 6.937 00:05:15 01:50:17
473428SM301919AUTUORI VINCENZORUNCARD EPS01:50:53 00:36:37 6.963 00:05:16 01:49:57
47446SF3571607VERGARI VALERIAA.S.D. MAGIC TRAINING01:50:57 00:36:41 6.971 00:05:16 01:50:51
475429SM45802113ANZELLOTTI DANIELEA.S. AMATORI VILLA PAMPHILI01:50:58 00:36:42 6.973 00:05:16 01:50:09
476430SM45812147FULLI MARCOA.S. AMATORI VILLA PAMPHILI01:50:58 00:36:42 6.973 00:05:16 01:50:07
477431SM55571581BONANNI CESAREASD U.S. ROMA 8301:51:09 00:36:53 6.997 00:05:16 01:50:37
47847SF3581964VANAT OLEKSANDRAG.S. CAT SPORT ROMA01:51:13 00:36:57 7.005 00:05:17 01:50:52
479432SM55582319ANTONANGELO STEFANOPOD. GRUPPO SOLIDARIETA01:51:17 00:37:01 7.013 00:05:17 01:50:57
480433SM55591998SAGGESE PASQUALEIPPOLIFE SSD01:51:18 00:37:02 7.016 00:05:17 01:51:05
481434SM501092237GELLI ALESSANDROA.S.D. ATLETICA MONTE MARIO01:51:21 00:37:05 7.022 00:05:17 01:50:59
482435SM40781513ROCCA FILIPPOA.S.D. ATLETICA MONTE MARIO01:51:22 00:37:06 7.024 00:05:17 01:51:03
483436SM45822367RANDOLFI MAURIZIOPOD. GRUPPO SOLIDARIETA01:51:22 00:37:06 7.024 00:05:17 01:50:45
484437SM45832099PASCARELLA MICHELEA.S.D. PFIZER ITALIA RUNNING TEAM01:51:22 00:37:06 7.024 00:05:17 01:50:16
48548SF50112320BIANCHETTI MARIAPOD. GRUPPO SOLIDARIETA01:51:24 00:37:08 7.028 00:05:17 01:50:17
48649SF4071706MOGLIONI SILVIAWOMAN TRIATHLON ITALIA ASD01:51:26 00:37:10 7.032 00:05:17 01:50:42
487438SM311509PALIANI GIOVANNI BATTISTARUNCARD FIDAL01:51:28 00:37:12 7.037 00:05:17 01:51:00
488439SM6571718VARONE ROBERTOA.S.D. ATLETICA PEGASO01:51:35 00:37:19 7.051 00:05:18 01:51:20
489440SM40792112CIMARELLI MASSIMOALMAVIVA RUNNERS01:51:35 00:37:19 7.051 00:05:18 01:51:01
490441SM55601956PUTZOLU MASSIMOG.S. CAT SPORT ROMA01:51:36 00:37:20 7.053 00:05:18 01:50:38
491442SM40801851PARLATI EMANUELERUNCARD FIDAL01:51:39 00:37:23 7.060 00:05:18 01:50:53
492443SM55611534LONGOBARDI MASSIMOUISP ROMA01:51:42 00:37:26 7.066 00:05:18 01:51:38
493444SM501101565RICALZONE RICCARDOA.S.D. PODISTICA ALSIVM LADISPOLI01:51:47 00:37:31 7.076 00:05:18 01:51:19
494445SM45842370RINALDI VINCENZOPOD. GRUPPO SOLIDARIETA01:51:53 00:37:37 7.089 00:05:18 01:50:48
495446SM501112228CLARIONI ANDREAA.S.D. ATLETICA MONTE MARIO01:52:02 00:37:46 7.108 00:05:19 01:51:31
49650SF50121852CARUSO ANTONELLAA.S.D. VIRTUS VILLA ADA01:52:03 00:37:47 7.110 00:05:19 01:51:40
497447SM45852210STOLZI ANDREAA.S. AMATORI VILLA PAMPHILI01:52:06 00:37:50 7.116 00:05:19 01:51:42
49851SF5521720SERGOLA MARIA RITAUISP RIETI01:52:07 00:37:51 7.118 00:05:19 01:51:45
49952SF6011779CASALINI DANIELARUNCARD FIDAL01:52:08 00:37:52 7.120 00:05:19 01:51:53
50053SF4081942FACCIOLO SABINAG.S. CAT SPORT ROMA01:52:08 00:37:52 7.120 00:05:19 01:51:38
501448SM55621960SEGALA ANGELOG.S. CAT SPORT ROMA01:52:09 00:37:53 7.122 00:05:19 01:51:48
502449SM55632365PROIA ANTONIOPOD. GRUPPO SOLIDARIETA01:52:11 00:37:55 7.126 00:05:19 01:51:23
503450SM45862538MARANI EMANUELERUNCARD FIDAL01:52:17 00:38:01 7.139 00:05:20 01:51:37
504451SM45871721FORLETTA MARCOAS ALBATROS ROMA01:52:21 00:38:05 7.147 00:05:20 01:51:08
505452SM60211873NANNI GREGORIOG.S. BANCARI ROMANI01:52:21 00:38:05 7.147 00:05:20 01:52:08
506453SM45881827BALLATORE BENEDETTOG.S. PETER PAN01:52:22 00:38:06 7.149 00:05:20 01:51:49
507454SM501121598PERRINO GIOACCHINOA.S.D. ATLETICA VILLA GUGLIELMI01:52:24 00:38:08 7.153 00:05:20 01:51:57
508455SM55642397LOPEZ GIANPAOLOPOD. GRUPPO SOLIDARIETA01:52:25 00:38:09 7.155 00:05:20 01:52:04
509456SM45891615AMADEI ANDREAASD X-SOLID SPORT LAB01:52:26 00:38:10 7.157 00:05:20 01:51:47
510457SM501132327CELI STEFANOPOD. GRUPPO SOLIDARIETA01:52:28 00:38:12 7.161 00:05:20 01:51:59
51154SF4091681BUSCEMI CINZIA ELISABETTARUNNERS FOR EMERGENCY01:52:33 00:38:17 7.172 00:05:20 01:52:26
51255SF5531692PAOLA FILOSOFIRUNNERS FOR EMERGENCY01:52:38 00:38:22 7.182 00:05:21 01:52:18
51356SF71907GARGIULLI GIORGIAMONTI DELLA TOLFA L'AIRONE01:52:39 00:38:23 7.184 00:05:21 01:52:05
514458SM55651909TORRI SERGIOMONTI DELLA TOLFA L'AIRONE01:52:40 00:38:24 7.186 00:05:21 01:52:06
515459SM45902218VITALI AMLETOA.S. AMATORI VILLA PAMPHILI01:52:40 00:38:24 7.186 00:05:21 01:52:20
51657SF40102136DI CONZA MICHELAA.S. AMATORI VILLA PAMPHILI01:52:45 00:38:29 7.196 00:05:21 01:52:38
517460SM501142359MAURIZI GIANLUCAPOD. GRUPPO SOLIDARIETA01:52:50 00:38:34 7.207 00:05:21 01:52:21
51858SF40111842RAFFO FEDERICAUISP ROMA01:52:51 00:38:35 7.209 00:05:21 01:52:13
519461SM35461566GERASSIMOV GUEORGUI PLAMENOVA.S.D. CENTRO FITNESS MONTELLO01:52:52 00:38:36 7.211 00:05:21 01:52:21
52059SF50131900SPACCINO LOLITAPODISTI VALMONTONE01:52:57 00:38:41 7.221 00:05:21 01:52:36
521462SM501152392ANNESSA ALESSANDROASD RUNNER TRAINER01:53:03 00:38:47 7.233 00:05:22 01:52:33
522463SM501162088SARGOLINI AMEDEORUNNING EVOLUTION COLLINE ROMANE01:53:04 00:38:48 7.235 00:05:22 01:52:26
52360SF3591944FIERIMONTE CHIARAG.S. CAT SPORT ROMA01:53:05 00:38:49 7.237 00:05:22 01:52:51
524464SM40811912PENSO FABIOCALCATERRA SPORT ASD01:53:10 00:38:54 7.248 00:05:22 01:52:05
525465SM501171923MONTI MAURIZIO MARIARUNCARD FIDAL01:53:11 00:38:55 7.250 00:05:22 01:53:02
526466SM501181836CIRULLI FABIOCALCATERRA SPORT ASD01:53:13 00:38:57 7.254 00:05:22 01:52:58
527467SM501192356MARINOZZI GIOVANNIPOD. GRUPPO SOLIDARIETA01:53:14 00:38:58 7.256 00:05:22 01:52:59
528468SM60222217VETRARI RODOLFOA.S. AMATORI VILLA PAMPHILI01:53:16 00:39:00 7.260 00:05:22 01:52:06
529469SM40822238GIANNINI EUGENIOA.S.D. ATLETICA MONTE MARIO01:53:17 00:39:01 7.262 00:05:22 01:52:58
530470SM60231725PICA SEBASTIANOAS ALBATROS ROMA01:53:17 00:39:01 7.262 00:05:22 01:52:12
53161SF50142072FARRONATO LILIANARUNNING EVOLUTION COLLINE ROMANE01:53:19 00:39:03 7.266 00:05:22 01:52:41
532471SM45911811CICERONE GIULIOPODISTICA CASALOTTI01:53:20 00:39:04 7.268 00:05:23 01:52:33
533472SM45922267PROIETTI GIANLUCAPODISTICA MARE DI ROMA01:53:22 00:39:06 7.272 00:05:23 01:52:30
534473SM501201691DUBBINI ALESSANDRORUNNERS FOR EMERGENCY01:53:27 00:39:11 7.282 00:05:23 01:53:19
535474SM45931588MORENO CARLOATLETICA VENAFRO01:53:29 00:39:13 7.286 00:05:23 01:53:03
536475SM501212278PACIFICI MAUROMARATHON ROMA CASTELFUSANO01:53:31 00:39:15 7.290 00:05:23 01:52:59
537476SM501221848AMANTI FRANCESCOA.S.D. ATLETICA TUSCULUM01:53:41 00:39:25 7.311 00:05:24 01:53:06
538477SM501232446SAI PAOLOPOD. GRUPPO SOLIDARIETA01:53:41 00:39:25 7.311 00:05:24 01:52:57
539478SM501242346GALLITTO MASSIMOPOD. GRUPPO SOLIDARIETA01:53:42 00:39:26 7.313 00:05:24 01:53:30
540479SM45942009AVINO ANDREADUE PONTI SRL01:53:48 00:39:32 7.325 00:05:24 01:53:28
541480SM6582035PANTANELLA ANTONINOASD OLIMPIAEUR CAMP01:53:52 00:39:36 7.333 00:05:24 01:53:00
542481SM55662116BASSETTO FRANCOA.S. AMATORI VILLA PAMPHILI01:53:53 00:39:37 7.335 00:05:24 01:52:59
543482SM45952268TOMASSI FABRIZIOLAZIO RUNNERS TEAM A.S.D.01:53:54 00:39:38 7.337 00:05:24 01:53:23
544483SM60242310PROIETTI FABRIZIOATLETICA FORUM SPORT CENTER01:53:55 00:39:39 7.339 00:05:24 01:53:11
545484SM45961756FILIPPINO PAOLOA.S.C.D. ISOLA SACRA01:53:58 00:39:42 7.345 00:05:24 01:53:16
546485SM501252439BLOOD MICHELLE KARENG.S. BANCARI ROMANI01:53:58 00:39:42 7.345 00:05:24 01:53:43
547486SM40832019BIELLO ANDREAA.S.D. VEGAN POWER TEAM01:54:00 00:39:44 7.349 00:05:24 01:53:34
548487SM40842279PERILLI BIAGIOMARATHON ROMA CASTELFUSANO01:54:01 00:39:45 7.351 00:05:24 01:53:28
549488SM60251724PECORIELLO MAURIZIOAS ALBATROS ROMA01:54:02 00:39:46 7.353 00:05:25 01:53:45
550489SM45971962TALANI PIERPAOLOG.S. CAT SPORT ROMA01:54:04 00:39:48